sensor_id;sensor_type;location;lat;lon;timestamp;pressure;altitude;pressure_sealevel;temperature;humidity
20015;BME280;61787;42.022;23.078;2024-02-26T00:00:41;96396.13;;;10.17;71.71
20015;BME280;61787;42.022;23.078;2024-02-26T00:01:43;96391.44;;;10.17;71.61
20015;BME280;61787;42.022;23.078;2024-02-26T00:02:47;96399.19;;;10.19;71.62
20015;BME280;61787;42.022;23.078;2024-02-26T00:03:49;96401.13;;;10.22;71.52
20015;BME280;61787;42.022;23.078;2024-02-26T00:04:51;96395.31;;;10.20;71.76
20015;BME280;61787;42.022;23.078;2024-02-26T00:05:52;96392.94;;;10.22;71.72
20015;BME280;61787;42.022;23.078;2024-02-26T00:06:54;96394.84;;;10.25;71.83
20015;BME280;61787;42.022;23.078;2024-02-26T00:07:57;96396.38;;;10.26;71.85
20015;BME280;61787;42.022;23.078;2024-02-26T00:09:02;96405.69;;;10.32;71.77
20015;BME280;61787;42.022;23.078;2024-02-26T00:10:07;96401.00;;;10.32;71.85
20015;BME280;61787;42.022;23.078;2024-02-26T00:11:09;96400.59;;;10.34;71.89
20015;BME280;61787;42.022;23.078;2024-02-26T00:12:11;96392.72;;;10.40;71.88
20015;BME280;61787;42.022;23.078;2024-02-26T00:13:13;96402.38;;;10.44;71.59
20015;BME280;61787;42.022;23.078;2024-02-26T00:14:14;96401.59;;;10.44;71.59
20015;BME280;61787;42.022;23.078;2024-02-26T00:15:16;96397.25;;;10.50;71.61
20015;BME280;61787;42.022;23.078;2024-02-26T00:16:18;96396.00;;;10.55;71.63
20015;BME280;61787;42.022;23.078;2024-02-26T00:17:19;96384.63;;;10.60;71.21
20015;BME280;61787;42.022;23.078;2024-02-26T00:18:21;96391.16;;;10.66;71.32
20015;BME280;61787;42.022;23.078;2024-02-26T00:19:23;96393.06;;;10.69;71.07
20015;BME280;61787;42.022;23.078;2024-02-26T00:20:24;96396.06;;;10.75;70.66
20015;BME280;61787;42.022;23.078;2024-02-26T00:21:27;96396.44;;;10.77;70.73
20015;BME280;61787;42.022;23.078;2024-02-26T00:22:29;96390.94;;;10.80;70.54
20015;BME280;61787;42.022;23.078;2024-02-26T00:23:30;96390.44;;;10.85;70.49
20015;BME280;61787;42.022;23.078;2024-02-26T00:24:32;96396.22;;;10.91;70.29
20015;BME280;61787;42.022;23.078;2024-02-26T00:25:33;96394.25;;;10.92;69.97
20015;BME280;61787;42.022;23.078;2024-02-26T00:26:35;96394.25;;;10.92;70.13
20015;BME280;61787;42.022;23.078;2024-02-26T00:27:37;96399.06;;;10.84;69.53
20015;BME280;61787;42.022;23.078;2024-02-26T00:28:38;96390.22;;;10.76;69.58
20015;BME280;61787;42.022;23.078;2024-02-26T00:29:40;96389.50;;;10.72;69.91
20015;BME280;61787;42.022;23.078;2024-02-26T00:30:41;96387.13;;;10.74;69.65
20015;BME280;61787;42.022;23.078;2024-02-26T00:31:43;96388.38;;;10.69;69.77
20015;BME280;61787;42.022;23.078;2024-02-26T00:32:45;96389.09;;;10.74;69.42
20015;BME280;61787;42.022;23.078;2024-02-26T00:33:46;96393.78;;;10.73;69.66
20015;BME280;61787;42.022;23.078;2024-02-26T00:34:48;96390.63;;;10.75;69.67
20015;BME280;61787;42.022;23.078;2024-02-26T00:35:50;96397.63;;;10.76;69.58
20015;BME280;61787;42.022;23.078;2024-02-26T00:36:52;96392.19;;;10.76;69.67
20015;BME280;61787;42.022;23.078;2024-02-26T00:37:53;96384.34;;;10.78;69.56
20015;BME280;61787;42.022;23.078;2024-02-26T00:38:55;96386.25;;;10.81;69.41
20015;BME280;61787;42.022;23.078;2024-02-26T00:39:57;96386.97;;;10.85;69.11
20015;BME280;61787;42.022;23.078;2024-02-26T00:40:59;96387.66;;;10.89;69.01
20015;BME280;61787;42.022;23.078;2024-02-26T00:42:00;96382.16;;;10.93;68.86
20015;BME280;61787;42.022;23.078;2024-02-26T00:43:02;96384.06;;;10.96;68.74
20015;BME280;61787;42.022;23.078;2024-02-26T00:44:03;96383.28;;;10.95;68.66
20015;BME280;61787;42.022;23.078;2024-02-26T00:45:05;96385.59;;;10.97;68.74
20015;BME280;61787;42.022;23.078;2024-02-26T00:46:07;96375.06;;;10.99;68.46
20015;BME280;61787;42.022;23.078;2024-02-26T00:47:09;96375.41;;;11.01;68.50
20015;BME280;61787;42.022;23.078;2024-02-26T00:48:11;96376.22;;;10.98;68.31
20015;BME280;61787;42.022;23.078;2024-02-26T00:49:12;96377.13;;;10.91;68.57
20015;BME280;61787;42.022;23.078;2024-02-26T00:50:14;96377.44;;;10.97;68.46
20015;BME280;61787;42.022;23.078;2024-02-26T00:51:16;96369.66;;;10.95;68.37
20015;BME280;61787;42.022;23.078;2024-02-26T00:52:18;96376.28;;;10.94;68.21
20015;BME280;61787;42.022;23.078;2024-02-26T00:53:19;96378.31;;;10.90;68.33
20015;BME280;61787;42.022;23.078;2024-02-26T00:54:21;96371.34;;;10.85;68.55
20015;BME280;61787;42.022;23.078;2024-02-26T00:55:23;96369.59;;;10.75;68.75
20015;BME280;61787;42.022;23.078;2024-02-26T00:56:24;96360.75;;;10.67;69.33
20015;BME280;61787;42.022;23.078;2024-02-26T00:57:26;96364.44;;;10.57;69.89
20015;BME280;61787;42.022;23.078;2024-02-26T00:58:28;96364.44;;;10.57;70.05
20015;BME280;61787;42.022;23.078;2024-02-26T00:59:29;96360.63;;;10.51;70.21
20015;BME280;61787;42.022;23.078;2024-02-26T01:00:31;96359.44;;;10.52;70.23
20015;BME280;61787;42.022;23.078;2024-02-26T01:01:32;96356.38;;;10.50;70.37
20015;BME280;61787;42.022;23.078;2024-02-26T01:02:34;96361.03;;;10.49;70.54
20015;BME280;61787;42.022;23.078;2024-02-26T01:03:36;96354.81;;;10.49;70.51
20015;BME280;61787;42.022;23.078;2024-02-26T01:04:37;96358.72;;;10.48;70.71
20015;BME280;61787;42.022;23.078;2024-02-26T01:05:39;96354.41;;;10.50;70.76
20015;BME280;61787;42.022;23.078;2024-02-26T01:06:41;96363.34;;;10.51;70.61
20015;BME280;61787;42.022;23.078;2024-02-26T01:07:43;96359.09;;;10.50;70.64
20015;BME280;61787;42.022;23.078;2024-02-26T01:08:45;96352.38;;;10.55;70.96
20015;BME280;61787;42.022;23.078;2024-02-26T01:09:47;96352.38;;;10.55;70.71
20015;BME280;61787;42.022;23.078;2024-02-26T01:10:48;96355.91;;;10.55;70.79
20015;BME280;61787;42.022;23.078;2024-02-26T01:11:50;96349.59;;;10.58;70.45
20015;BME280;61787;42.022;23.078;2024-02-26T01:12:52;96346.13;;;10.58;70.29
20015;BME280;61787;42.022;23.078;2024-02-26T01:13:53;96350.97;;;10.46;70.63
20015;BME280;61787;42.022;23.078;2024-02-26T01:14:58;96347.09;;;10.44;71.00
20015;BME280;61787;42.022;23.078;2024-02-26T01:16:00;96347.47;;;10.46;71.12
20015;BME280;61787;42.022;23.078;2024-02-26T01:17:03;96349.72;;;10.51;71.11
20015;BME280;61787;42.022;23.078;2024-02-26T01:18:04;96346.94;;;10.55;70.63
20015;BME280;61787;42.022;23.078;2024-02-26T01:19:06;96355.47;;;10.57;70.78
20015;BME280;61787;42.022;23.078;2024-02-26T01:20:08;96344.22;;;10.55;70.12
20015;BME280;61787;42.022;23.078;2024-02-26T01:21:10;96344.72;;;10.46;70.03
20015;BME280;61787;42.022;23.078;2024-02-26T01:22:12;96347.63;;;10.35;70.14
20015;BME280;61787;42.022;23.078;2024-02-26T01:23:13;96340.84;;;10.20;70.16
20015;BME280;61787;42.022;23.078;2024-02-26T01:24:15;96346.28;;;10.20;69.52
20015;BME280;61787;42.022;23.078;2024-02-26T01:25:17;96334.19;;;10.21;69.68
20015;BME280;61787;42.022;23.078;2024-02-26T01:26:19;96347.00;;;10.24;69.36
20015;BME280;61787;42.022;23.078;2024-02-26T01:27:21;96342.72;;;10.23;69.08
20015;BME280;61787;42.022;23.078;2024-02-26T01:28:22;96336.84;;;10.24;69.33
20015;BME280;61787;42.022;23.078;2024-02-26T01:29:24;96345.88;;;10.21;69.22
20015;BME280;61787;42.022;23.078;2024-02-26T01:30:26;96342.34;;;10.21;69.04
20015;BME280;61787;42.022;23.078;2024-02-26T01:31:28;96343.97;;;10.18;68.99
20015;BME280;61787;42.022;23.078;2024-02-26T01:32:30;96342.47;;;10.13;69.21
20015;BME280;61787;42.022;23.078;2024-02-26T01:33:31;96343.31;;;10.10;69.22
20015;BME280;61787;42.022;23.078;2024-02-26T01:34:33;96347.19;;;10.09;69.27
20015;BME280;61787;42.022;23.078;2024-02-26T01:35:35;96350.72;;;10.06;69.26
20015;BME280;61787;42.022;23.078;2024-02-26T01:36:37;96343.31;;;10.10;69.08
20015;BME280;61787;42.022;23.078;2024-02-26T01:37:39;96346.78;;;10.11;69.04
20015;BME280;61787;42.022;23.078;2024-02-26T01:38:40;96343.31;;;10.10;69.35
20015;BME280;61787;42.022;23.078;2024-02-26T01:39:42;96343.75;;;10.05;69.39
20015;BME280;61787;42.022;23.078;2024-02-26T01:40:44;96343.47;;;10.00;69.69
20015;BME280;61787;42.022;23.078;2024-02-26T01:41:45;96345.78;;;9.98;69.95
20015;BME280;61787;42.022;23.078;2024-02-26T01:42:47;96351.28;;;9.94;70.45
20015;BME280;61787;42.022;23.078;2024-02-26T01:43:50;96350.88;;;9.96;70.50
20015;BME280;61787;42.022;23.078;2024-02-26T01:44:51;96352.78;;;9.99;70.59
20015;BME280;61787;42.022;23.078;2024-02-26T01:45:53;96357.06;;;10.00;70.51
20015;BME280;61787;42.022;23.078;2024-02-26T01:46:55;96343.03;;;10.01;70.49
20015;BME280;61787;42.022;23.078;2024-02-26T01:47:57;96339.47;;;10.04;70.36
20015;BME280;61787;42.022;23.078;2024-02-26T01:48:59;96346.84;;;10.07;70.26
20015;BME280;61787;42.022;23.078;2024-02-26T01:50:03;96342.22;;;10.04;70.03
20015;BME280;61787;42.022;23.078;2024-02-26T01:51:05;96339.22;;;9.95;70.28
20015;BME280;61787;42.022;23.078;2024-02-26T01:52:08;96340.59;;;9.80;70.70
20015;BME280;61787;42.022;23.078;2024-02-26T01:53:11;96335.19;;;9.76;70.90
20015;BME280;61787;42.022;23.078;2024-02-26T01:54:13;96336.13;;;9.66;71.30
20015;BME280;61787;42.022;23.078;2024-02-26T01:55:17;96340.84;;;9.58;71.91
20015;BME280;61787;42.022;23.078;2024-02-26T01:56:19;96339.31;;;9.57;71.99
20015;BME280;61787;42.022;23.078;2024-02-26T01:57:22;96340.03;;;9.61;71.78
20015;BME280;61787;42.022;23.078;2024-02-26T01:58:24;96339.25;;;9.64;71.73
20015;BME280;61787;42.022;23.078;2024-02-26T01:59:26;96337.59;;;9.70;71.62
20015;BME280;61787;42.022;23.078;2024-02-26T02:00:27;96336.44;;;9.71;71.30
20015;BME280;61787;42.022;23.078;2024-02-26T02:01:31;96335.22;;;9.72;71.78
20015;BME280;61787;42.022;23.078;2024-02-26T02:02:33;96336.03;;;9.73;71.46
20015;BME280;61787;42.022;23.078;2024-02-26T02:03:36;96334.44;;;9.75;71.36
20015;BME280;61787;42.022;23.078;2024-02-26T02:04:38;96344.69;;;9.64;71.48
20015;BME280;61787;42.022;23.078;2024-02-26T02:05:41;96335.31;;;9.65;71.46
20015;BME280;61787;42.022;23.078;2024-02-26T02:06:45;96336.06;;;9.69;71.68
20015;BME280;61787;42.022;23.078;2024-02-26T02:07:48;96334.81;;;9.74;71.26
20015;BME280;61787;42.022;23.078;2024-02-26T02:08:50;96341.78;;;9.79;71.35
20015;BME280;61787;42.022;23.078;2024-02-26T02:09:53;96335.13;;;9.80;71.04
20015;BME280;61787;42.022;23.078;2024-02-26T02:10:55;96339.06;;;9.79;71.06
20015;BME280;61787;42.022;23.078;2024-02-26T02:11:58;96333.16;;;9.84;71.24
20015;BME280;61787;42.022;23.078;2024-02-26T02:13:00;96336.59;;;9.88;71.31
20015;BME280;61787;42.022;23.078;2024-02-26T02:14:01;96325.63;;;9.95;70.69
20015;BME280;61787;42.022;23.078;2024-02-26T02:15:03;96336.56;;;9.91;70.94
20015;BME280;61787;42.022;23.078;2024-02-26T02:16:05;96328.06;;;9.86;71.02
20015;BME280;61787;42.022;23.078;2024-02-26T02:17:07;96326.78;;;9.94;71.00
20015;BME280;61787;42.022;23.078;2024-02-26T02:18:09;96324.44;;;9.96;70.79
20015;BME280;61787;42.022;23.078;2024-02-26T02:19:11;96329.56;;;9.90;70.95
20015;BME280;61787;42.022;23.078;2024-02-26T02:20:16;96335.38;;;9.92;71.18
20015;BME280;61787;42.022;23.078;2024-02-26T02:21:19;96328.69;;;9.97;71.21
20015;BME280;61787;42.022;23.078;2024-02-26T02:22:21;96330.97;;;10.02;71.17
20015;BME280;61787;42.022;23.078;2024-02-26T02:23:23;96323.50;;;10.06;71.16
20015;BME280;61787;42.022;23.078;2024-02-26T02:24:25;96326.59;;;10.08;71.10
20015;BME280;61787;42.022;23.078;2024-02-26T02:25:27;96328.19;;;10.06;71.07
20015;BME280;61787;42.022;23.078;2024-02-26T02:26:28;96332.03;;;10.08;71.11
20015;BME280;61787;42.022;23.078;2024-02-26T02:27:30;96316.44;;;10.12;71.11
20015;BME280;61787;42.022;23.078;2024-02-26T02:28:32;96321.13;;;10.08;71.10
20015;BME280;61787;42.022;23.078;2024-02-26T02:29:33;96322.34;;;10.07;70.96
20015;BME280;61787;42.022;23.078;2024-02-26T02:30:35;96323.16;;;10.04;70.84
20015;BME280;61787;42.022;23.078;2024-02-26T02:31:38;96317.00;;;10.00;70.28
20015;BME280;61787;42.022;23.078;2024-02-26T02:32:40;96319.72;;;10.00;70.08
20015;BME280;61787;42.022;23.078;2024-02-26T02:33:45;96314.00;;;9.91;70.16
20015;BME280;61787;42.022;23.078;2024-02-26T02:34:47;96318.72;;;9.87;70.46
20015;BME280;61787;42.022;23.078;2024-02-26T02:35:49;96310.34;;;9.74;70.91
20015;BME280;61787;42.022;23.078;2024-02-26T02:36:54;96306.53;;;9.68;71.26
20015;BME280;61787;42.022;23.078;2024-02-26T02:37:57;96307.13;;;9.52;72.15
20015;BME280;61787;42.022;23.078;2024-02-26T02:38:59;96297.53;;;9.40;72.52
20015;BME280;61787;42.022;23.078;2024-02-26T02:40:00;96299.84;;;9.42;72.41
20015;BME280;61787;42.022;23.078;2024-02-26T02:41:02;96307.75;;;9.32;72.88
20015;BME280;61787;42.022;23.078;2024-02-26T02:42:04;96300.78;;;9.31;73.00
20015;BME280;61787;42.022;23.078;2024-02-26T02:43:05;96296.94;;;9.25;73.18
20015;BME280;61787;42.022;23.078;2024-02-26T02:44:07;96306.34;;;9.21;73.50
20015;BME280;61787;42.022;23.078;2024-02-26T02:45:09;96304.38;;;9.21;73.57
20015;BME280;61787;42.022;23.078;2024-02-26T02:46:11;96308.63;;;9.22;73.76
20015;BME280;61787;42.022;23.078;2024-02-26T02:47:15;96320.31;;;9.23;73.86
20015;BME280;61787;42.022;23.078;2024-02-26T02:48:17;96307.81;;;9.25;73.90
20015;BME280;61787;42.022;23.078;2024-02-26T02:49:19;96316.72;;;9.29;73.86
20015;BME280;61787;42.022;23.078;2024-02-26T02:50:20;96309.69;;;9.32;73.74
20015;BME280;61787;42.022;23.078;2024-02-26T02:51:22;96320.53;;;9.35;73.59
20015;BME280;61787;42.022;23.078;2024-02-26T02:52:24;96312.75;;;9.38;72.84
20015;BME280;61787;42.022;23.078;2024-02-26T02:53:25;96304.56;;;9.38;72.82
20015;BME280;61787;42.022;23.078;2024-02-26T02:54:27;96302.22;;;9.40;72.31
20015;BME280;61787;42.022;23.078;2024-02-26T02:55:29;96301.84;;;9.38;72.15
20015;BME280;61787;42.022;23.078;2024-02-26T02:56:30;96297.53;;;9.40;72.14
20015;BME280;61787;42.022;23.078;2024-02-26T02:57:32;96299.13;;;9.38;72.08
20015;BME280;61787;42.022;23.078;2024-02-26T02:58:34;96301.09;;;9.37;72.37
20015;BME280;61787;42.022;23.078;2024-02-26T02:59:37;96300.69;;;9.39;72.19
20015;BME280;61787;42.022;23.078;2024-02-26T03:00:38;96306.81;;;9.46;72.08
20015;BME280;61787;42.022;23.078;2024-02-26T03:01:40;96302.84;;;9.51;72.18
20015;BME280;61787;42.022;23.078;2024-02-26T03:02:42;96304.34;;;9.55;71.75
20015;BME280;61787;42.022;23.078;2024-02-26T03:03:46;96301.19;;;9.61;71.29
20015;BME280;61787;42.022;23.078;2024-02-26T03:04:48;96311.31;;;9.60;71.07
20015;BME280;61787;42.022;23.078;2024-02-26T03:05:49;96304.31;;;9.59;71.37
20015;BME280;61787;42.022;23.078;2024-02-26T03:06:51;96309.84;;;9.52;71.17
20015;BME280;61787;42.022;23.078;2024-02-26T03:07:53;96310.25;;;9.50;71.25
20015;BME280;61787;42.022;23.078;2024-02-26T03:08:54;96311.06;;;9.47;71.60
20015;BME280;61787;42.022;23.078;2024-02-26T03:09:56;96314.75;;;9.33;71.52
20015;BME280;61787;42.022;23.078;2024-02-26T03:10:58;96316.06;;;9.18;71.95
20015;BME280;61787;42.022;23.078;2024-02-26T03:12:00;96314.69;;;9.03;72.49
20015;BME280;61787;42.022;23.078;2024-02-26T03:13:02;96318.31;;;8.89;72.79
20015;BME280;61787;42.022;23.078;2024-02-26T03:14:04;96315.72;;;8.74;73.18
20015;BME280;61787;42.022;23.078;2024-02-26T03:15:06;96317.66;;;8.74;73.68
20015;BME280;61787;42.022;23.078;2024-02-26T03:16:09;96321.94;;;8.75;73.45
20015;BME280;61787;42.022;23.078;2024-02-26T03:17:10;96310.06;;;8.58;73.97
20015;BME280;61787;42.022;23.078;2024-02-26T03:18:12;96310.03;;;8.62;74.02
20015;BME280;61787;42.022;23.078;2024-02-26T03:19:14;96305.34;;;8.66;73.98
20015;BME280;61787;42.022;23.078;2024-02-26T03:20:18;96306.84;;;8.67;73.74
20015;BME280;61787;42.022;23.078;2024-02-26T03:21:21;96316.22;;;8.62;73.96
20015;BME280;61787;42.022;23.078;2024-02-26T03:22:22;96313.56;;;8.55;73.94
20015;BME280;61787;42.022;23.078;2024-02-26T03:23:24;96298.09;;;8.48;73.79
20015;BME280;61787;42.022;23.078;2024-02-26T03:24:25;96303.16;;;8.46;73.94
20015;BME280;61787;42.022;23.078;2024-02-26T03:25:27;96293.88;;;8.40;74.32
20015;BME280;61787;42.022;23.078;2024-02-26T03:26:29;96284.66;;;8.27;74.98
20015;BME280;61787;42.022;23.078;2024-02-26T03:27:32;96293.66;;;8.16;75.45
20015;BME280;61787;42.022;23.078;2024-02-26T03:28:34;96296.44;;;8.09;76.25
20015;BME280;61787;42.022;23.078;2024-02-26T03:29:37;96294.09;;;8.15;75.99
20015;BME280;61787;42.022;23.078;2024-02-26T03:30:38;96290.56;;;8.18;75.90
20015;BME280;61787;42.022;23.078;2024-02-26T03:31:40;96294.47;;;8.13;76.23
20015;BME280;61787;42.022;23.078;2024-02-26T03:32:42;96288.63;;;8.18;76.23
20015;BME280;61787;42.022;23.078;2024-02-26T03:33:43;96292.09;;;8.19;76.33
20015;BME280;61787;42.022;23.078;2024-02-26T03:34:45;96294.78;;;8.26;76.30
20015;BME280;61787;42.022;23.078;2024-02-26T03:35:47;96291.66;;;8.28;76.32
20015;BME280;61787;42.022;23.078;2024-02-26T03:36:49;96289.66;;;8.35;76.21
20015;BME280;61787;42.022;23.078;2024-02-26T03:37:50;96286.91;;;8.39;76.00
20015;BME280;61787;42.022;23.078;2024-02-26T03:38:53;96282.22;;;8.43;75.82
20015;BME280;61787;42.022;23.078;2024-02-26T03:39:54;96284.19;;;8.39;76.25
20015;BME280;61787;42.022;23.078;2024-02-26T03:40:58;96283.84;;;8.33;76.36
20015;BME280;61787;42.022;23.078;2024-02-26T03:42:00;96294.75;;;8.30;76.50
20015;BME280;61787;42.022;23.078;2024-02-26T03:43:02;96297.09;;;8.28;76.77
20015;BME280;61787;42.022;23.078;2024-02-26T03:44:05;96295.06;;;8.39;77.10
20015;BME280;61787;42.022;23.078;2024-02-26T03:45:07;96296.97;;;8.46;76.75
20015;BME280;61787;42.022;23.078;2024-02-26T03:46:11;96296.13;;;8.52;76.64
20015;BME280;61787;42.022;23.078;2024-02-26T03:47:16;96296.88;;;8.56;76.49
20015;BME280;61787;42.022;23.078;2024-02-26T03:48:17;96291.41;;;8.60;76.13
20015;BME280;61787;42.022;23.078;2024-02-26T03:49:19;96294.53;;;8.58;75.68
20015;BME280;61787;42.022;23.078;2024-02-26T03:50:21;96286.38;;;8.58;75.65
20015;BME280;61787;42.022;23.078;2024-02-26T03:51:22;96282.78;;;8.69;75.82
20015;BME280;61787;42.022;23.078;2024-02-26T03:52:24;96280.38;;;8.78;75.66
20015;BME280;61787;42.022;23.078;2024-02-26T03:53:26;96288.84;;;8.84;75.41
20015;BME280;61787;42.022;23.078;2024-02-26T03:54:27;96283.72;;;8.93;75.24
20015;BME280;61787;42.022;23.078;2024-02-26T03:55:29;96281.72;;;8.97;74.80
20015;BME280;61787;42.022;23.078;2024-02-26T03:56:31;96286.03;;;8.94;74.65
20015;BME280;61787;42.022;23.078;2024-02-26T03:57:32;96274.72;;;9.00;74.77
20015;BME280;61787;42.022;23.078;2024-02-26T03:58:34;96278.97;;;9.01;74.43
20015;BME280;61787;42.022;23.078;2024-02-26T03:59:36;96274.72;;;9.00;74.63
20015;BME280;61787;42.022;23.078;2024-02-26T04:00:37;96280.91;;;9.00;74.49
20015;BME280;61787;42.022;23.078;2024-02-26T04:01:39;96281.63;;;9.04;74.38
20015;BME280;61787;42.022;23.078;2024-02-26T04:02:49;96286.28;;;9.07;74.38
20015;BME280;61787;42.022;23.078;2024-02-26T04:03:51;96286.63;;;9.09;74.30
20015;BME280;61787;42.022;23.078;2024-02-26T04:04:54;96281.91;;;9.17;74.13
20015;BME280;61787;42.022;23.078;2024-02-26T04:05:55;96275.28;;;9.18;73.73
20015;BME280;61787;42.022;23.078;2024-02-26T04:06:57;96288.16;;;9.14;73.53
20015;BME280;61787;42.022;23.078;2024-02-26T04:07:59;96279.56;;;9.19;73.69
20015;BME280;61787;42.022;23.078;2024-02-26T04:09:01;96284.13;;;9.26;73.69
20015;BME280;61787;42.022;23.078;2024-02-26T04:10:09;96278.59;;;9.33;73.43
20015;BME280;61787;42.022;23.078;2024-02-26T04:11:11;96274.66;;;9.38;73.16
20015;BME280;61787;42.022;23.078;2024-02-26T04:12:13;96290.53;;;9.43;72.95
20015;BME280;61787;42.022;23.078;2024-02-26T04:13:17;96283.09;;;9.47;72.81
20015;BME280;61787;42.022;23.078;2024-02-26T04:14:18;96280.31;;;9.50;72.50
20015;BME280;61787;42.022;23.078;2024-02-26T04:15:20;96278.75;;;9.53;72.40
20015;BME280;61787;42.022;23.078;2024-02-26T04:16:22;96273.25;;;9.57;72.58
20015;BME280;61787;42.022;23.078;2024-02-26T04:17:23;96277.09;;;9.59;72.31
20015;BME280;61787;42.022;23.078;2024-02-26T04:18:25;96279.38;;;9.64;71.99
20015;BME280;61787;42.022;23.078;2024-02-26T04:19:27;96270.81;;;9.66;72.04
20015;BME280;61787;42.022;23.078;2024-02-26T04:20:29;96277.38;;;9.68;71.67
20015;BME280;61787;42.022;23.078;2024-02-26T04:21:30;96273.06;;;9.71;71.61
20015;BME280;61787;42.022;23.078;2024-02-26T04:22:32;96280.41;;;9.74;71.63
20015;BME280;61787;42.022;23.078;2024-02-26T04:23:34;96286.97;;;9.77;71.30
20015;BME280;61787;42.022;23.078;2024-02-26T04:24:36;96290.13;;;9.75;71.10
20015;BME280;61787;42.022;23.078;2024-02-26T04:25:38;96281.19;;;9.74;70.93
20015;BME280;61787;42.022;23.078;2024-02-26T04:26:39;96287.13;;;9.66;70.77
20015;BME280;61787;42.022;23.078;2024-02-26T04:27:41;96286.91;;;9.53;71.00
20015;BME280;61787;42.022;23.078;2024-02-26T04:28:43;96281.44;;;9.57;71.14
20015;BME280;61787;42.022;23.078;2024-02-26T04:29:44;96284.47;;;9.62;71.30
20015;BME280;61787;42.022;23.078;2024-02-26T04:30:47;96277.41;;;9.65;71.18
20015;BME280;61787;42.022;23.078;2024-02-26T04:31:49;96278.13;;;9.69;71.06
20015;BME280;61787;42.022;23.078;2024-02-26T04:32:51;96281.59;;;9.73;70.88
20015;BME280;61787;42.022;23.078;2024-02-26T04:33:53;96277.97;;;9.80;70.44
20015;BME280;61787;42.022;23.078;2024-02-26T04:34:54;96282.00;;;9.71;70.38
20015;BME280;61787;42.022;23.078;2024-02-26T04:35:56;96285.56;;;9.65;70.29
20015;BME280;61787;42.022;23.078;2024-02-26T04:36:58;96281.88;;;9.51;70.43
20015;BME280;61787;42.022;23.078;2024-02-26T04:37:59;96285.00;;;9.50;70.88
20015;BME280;61787;42.022;23.078;2024-02-26T04:39:01;96287.72;;;9.50;70.88
20015;BME280;61787;42.022;23.078;2024-02-26T04:40:04;96281.88;;;9.51;71.03
20015;BME280;61787;42.022;23.078;2024-02-26T04:41:06;96281.81;;;9.55;70.88
20015;BME280;61787;42.022;23.078;2024-02-26T04:42:08;96277.91;;;9.56;70.93
20015;BME280;61787;42.022;23.078;2024-02-26T04:43:09;96279.47;;;9.57;70.69
20015;BME280;61787;42.022;23.078;2024-02-26T04:44:11;96280.22;;;9.58;70.69
20015;BME280;61787;42.022;23.078;2024-02-26T04:45:13;96277.09;;;9.59;70.58
20015;BME280;61787;42.022;23.078;2024-02-26T04:46:14;96284.09;;;9.60;70.76
20015;BME280;61787;42.022;23.078;2024-02-26T04:47:16;96282.13;;;9.61;70.67
20015;BME280;61787;42.022;23.078;2024-02-26T04:48:17;96282.09;;;9.64;70.80
20015;BME280;61787;42.022;23.078;2024-02-26T04:49:19;96277.78;;;9.67;70.52
20015;BME280;61787;42.022;23.078;2024-02-26T04:50:21;96275.41;;;9.69;70.54
20015;BME280;61787;42.022;23.078;2024-02-26T04:51:23;96282.75;;;9.72;70.02
20015;BME280;61787;42.022;23.078;2024-02-26T04:52:25;96279.28;;;9.71;70.06
20015;BME280;61787;42.022;23.078;2024-02-26T04:53:27;96281.63;;;9.69;69.83
20015;BME280;61787;42.022;23.078;2024-02-26T04:54:29;96290.81;;;9.52;70.00
20015;BME280;61787;42.022;23.078;2024-02-26T04:55:30;96292.16;;;9.36;70.69
20015;BME280;61787;42.022;23.078;2024-02-26T04:56:32;96279.47;;;9.26;71.16
20015;BME280;61787;42.022;23.078;2024-02-26T04:57:34;96278.28;;;9.27;71.24
20015;BME280;61787;42.022;23.078;2024-02-26T04:58:35;96284.53;;;9.24;71.21
20015;BME280;61787;42.022;23.078;2024-02-26T04:59:37;96280.66;;;9.22;71.46
20015;BME280;61787;42.022;23.078;2024-02-26T05:00:39;96275.41;;;9.07;71.98
20015;BME280;61787;42.022;23.078;2024-02-26T05:01:40;96290.22;;;9.03;72.17
20015;BME280;61787;42.022;23.078;2024-02-26T05:02:43;96293.31;;;9.05;72.06
20015;BME280;61787;42.022;23.078;2024-02-26T05:03:45;96280.50;;;9.02;72.36
20015;BME280;61787;42.022;23.078;2024-02-26T05:04:46;96286.31;;;9.04;72.47
20015;BME280;61787;42.022;23.078;2024-02-26T05:05:48;96288.94;;;9.11;72.42
20015;BME280;61787;42.022;23.078;2024-02-26T05:06:50;96284.63;;;9.17;72.00
20015;BME280;61787;42.022;23.078;2024-02-26T05:07:52;96287.34;;;9.17;71.92
20015;BME280;61787;42.022;23.078;2024-02-26T05:08:53;96286.50;;;9.20;72.06
20015;BME280;61787;42.022;23.078;2024-02-26T05:09:55;96292.31;;;9.22;71.73
20015;BME280;61787;42.022;23.078;2024-02-26T05:10:57;96291.59;;;9.18;71.48
20015;BME280;61787;42.022;23.078;2024-02-26T05:11:58;96284.72;;;9.10;71.51
20015;BME280;61787;42.022;23.078;2024-02-26T05:13:00;96270.72;;;9.08;71.63
20015;BME280;61787;42.022;23.078;2024-02-26T05:14:03;96282.78;;;9.07;71.73
20015;BME280;61787;42.022;23.078;2024-02-26T05:15:05;96281.22;;;9.06;71.93
20015;BME280;61787;42.022;23.078;2024-02-26T05:16:07;96281.22;;;9.06;72.15
20015;BME280;61787;42.022;23.078;2024-02-26T05:17:08;96284.34;;;9.04;72.11
20015;BME280;61787;42.022;23.078;2024-02-26T05:18:10;96288.66;;;9.02;71.49
20015;BME280;61787;42.022;23.078;2024-02-26T05:19:12;96287.19;;;8.93;71.95
20015;BME280;61787;42.022;23.078;2024-02-26T05:20:14;96290.31;;;8.95;71.98
20015;BME280;61787;42.022;23.078;2024-02-26T05:21:15;96298.47;;;8.95;72.23
20015;BME280;61787;42.022;23.078;2024-02-26T05:22:17;96297.34;;;8.89;72.04
20015;BME280;61787;42.022;23.078;2024-02-26T05:23:19;96300.06;;;8.89;72.19
20015;BME280;61787;42.022;23.078;2024-02-26T05:24:24;96298.47;;;8.95;72.01
20015;BME280;61787;42.022;23.078;2024-02-26T05:25:26;96300.38;;;8.95;71.97
20015;BME280;61787;42.022;23.078;2024-02-26T05:26:27;96296.97;;;8.87;71.84
20015;BME280;61787;42.022;23.078;2024-02-26T05:27:29;96297.34;;;8.89;72.12